createdAt,value
2018-12-23T00:01:16.557Z,6.90
2018-12-23T00:03:42.728Z,6.80
2018-12-23T00:06:08.873Z,6.80
2018-12-23T00:08:35.006Z,6.80
2018-12-23T00:11:08.209Z,6.80
2018-12-23T00:13:34.388Z,6.90
2018-12-23T00:16:00.547Z,6.80
2018-12-23T00:18:26.662Z,6.80
2018-12-23T00:20:52.907Z,6.80
2018-12-23T00:23:19.057Z,6.80
2018-12-23T00:25:45.251Z,6.80
2018-12-23T00:28:11.401Z,6.80
2018-12-23T00:30:37.816Z,6.80
2018-12-23T00:33:03.972Z,6.80
2018-12-23T00:35:30.301Z,6.80
2018-12-23T00:37:56.432Z,6.80
2018-12-23T00:40:22.574Z,6.80
2018-12-23T00:42:48.726Z,6.80
2018-12-23T00:45:14.923Z,6.70
2018-12-23T00:47:41.127Z,6.60
2018-12-23T00:50:07.322Z,6.60
2018-12-23T00:52:33.465Z,6.60
2018-12-23T00:54:59.598Z,6.60
2018-12-23T00:57:25.762Z,6.50
2018-12-23T00:59:51.929Z,6.50
2018-12-23T01:02:18.146Z,6.50
2018-12-23T01:04:44.281Z,6.60
2018-12-23T01:07:10.543Z,6.60
2018-12-23T01:09:43.602Z,6.60
2018-12-23T01:12:09.793Z,6.60
2018-12-23T01:14:35.989Z,6.60
2018-12-23T01:17:02.168Z,6.70
2018-12-23T01:19:28.378Z,6.80
2018-12-23T01:21:54.497Z,6.90
2018-12-23T01:24:20.626Z,7.00
2018-12-23T01:26:46.787Z,7.10
2018-12-23T01:29:12.957Z,7.00
2018-12-23T01:31:39.145Z,7.10
2018-12-23T01:34:05.465Z,7.00
2018-12-23T01:36:31.777Z,7.10
2018-12-23T01:38:58.099Z,7.00
2018-12-23T01:41:24.233Z,7.10
2018-12-23T01:43:50.384Z,7.10
2018-12-23T01:46:16.488Z,7.10
2018-12-23T01:48:42.637Z,7.10
2018-12-23T01:51:08.763Z,7.00
2018-12-23T01:53:35.134Z,7.00
2018-12-23T01:56:01.308Z,6.90
2018-12-23T01:58:27.549Z,6.90
2018-12-23T02:00:53.767Z,6.90
2018-12-23T02:03:19.903Z,6.80
2018-12-23T02:05:46.397Z,6.80
2018-12-23T02:08:12.639Z,6.70
2018-12-23T02:10:38.791Z,6.80
2018-12-23T02:13:04.949Z,6.70
2018-12-23T02:15:38.124Z,6.50
2018-12-23T02:18:04.685Z,6.50
2018-12-23T02:20:30.861Z,6.50
2018-12-23T02:22:57.038Z,6.40
2018-12-23T02:25:23.252Z,6.40
2018-12-23T02:27:49.380Z,6.40
2018-12-23T02:30:15.515Z,6.30
2018-12-23T02:32:41.827Z,6.30
2018-12-23T02:35:08.094Z,6.20
2018-12-23T02:37:34.231Z,6.10
2018-12-23T02:40:00.356Z,6.20
2018-12-23T02:42:26.503Z,6.10
2018-12-23T02:44:52.671Z,6.10
2018-12-23T02:47:18.813Z,6.10
2018-12-23T02:49:44.926Z,6.00
2018-12-23T02:52:11.067Z,6.00
2018-12-23T02:54:37.173Z,6.00
2018-12-23T02:57:03.368Z,6.00
2018-12-23T02:59:36.452Z,5.90
2018-12-23T03:02:02.841Z,5.90
2018-12-23T03:04:29.011Z,5.90
2018-12-23T03:06:55.174Z,5.90
2018-12-23T03:09:21.305Z,5.80
2018-12-23T03:11:47.422Z,5.80
2018-12-23T03:14:13.647Z,5.80
2018-12-23T03:16:39.843Z,5.70
2018-12-23T03:19:12.743Z,5.70
2018-12-23T03:21:38.897Z,5.60
2018-12-23T03:24:05.015Z,5.70
2018-12-23T03:26:31.155Z,5.70
2018-12-23T03:28:57.345Z,5.70
2018-12-23T03:31:23.560Z,5.70
2018-12-23T03:33:49.726Z,5.70
2018-12-23T03:36:15.898Z,5.70
2018-12-23T03:38:42.201Z,5.60
2018-12-23T03:41:08.580Z,5.60
2018-12-23T03:43:34.769Z,5.60
2018-12-23T03:46:00.975Z,5.50
2018-12-23T03:48:27.132Z,5.50
2018-12-23T03:51:00.190Z,5.60
2018-12-23T03:53:26.446Z,5.60
2018-12-23T03:55:52.586Z,5.60
2018-12-23T03:58:18.729Z,5.60
2018-12-23T04:00:44.855Z,5.60
2018-12-23T04:03:11.011Z,5.70
2018-12-23T04:05:37.153Z,5.70
2018-12-23T04:08:03.273Z,5.80
2018-12-23T04:10:29.451Z,5.90
2018-12-23T04:12:55.576Z,6.00
2018-12-23T04:15:21.712Z,6.00
2018-12-23T04:17:47.912Z,6.00
2018-12-23T04:20:14.018Z,6.00
2018-12-23T04:22:40.148Z,6.00
2018-12-23T04:25:06.446Z,6.00
2018-12-23T04:27:32.574Z,6.00
2018-12-23T04:29:58.682Z,6.10
2018-12-23T04:32:24.824Z,6.10
2018-12-23T04:34:51.021Z,6.10
2018-12-23T04:37:17.233Z,6.00
2018-12-23T04:39:43.573Z,5.90
2018-12-23T04:42:09.740Z,5.90
2018-12-23T04:44:35.883Z,5.80
2018-12-23T04:47:02.136Z,5.70
2018-12-23T04:49:28.471Z,5.70
2018-12-23T04:51:54.800Z,5.70
2018-12-23T04:54:20.947Z,5.70
2018-12-23T04:56:47.128Z,5.60
2018-12-23T04:59:13.290Z,5.50
2018-12-23T05:01:40.429Z,5.50
2018-12-23T05:04:06.527Z,5.50
2018-12-23T05:06:32.732Z,5.50
2018-12-23T05:08:59.180Z,5.50
2018-12-23T05:11:25.297Z,5.50
2018-12-23T05:13:51.402Z,5.40
2018-12-23T05:16:17.539Z,5.50
2018-12-23T05:18:43.629Z,5.40
2018-12-23T05:21:16.629Z,5.40
2018-12-23T05:23:42.790Z,5.40
2018-12-23T05:26:08.953Z,5.40
2018-12-23T05:28:35.143Z,5.40
2018-12-23T05:31:01.380Z,5.30
2018-12-23T05:33:27.572Z,5.30
2018-12-23T05:35:53.730Z,5.30
2018-12-23T05:38:19.935Z,5.30
2018-12-23T05:40:46.118Z,5.30
2018-12-23T05:43:12.239Z,5.20
2018-12-23T05:45:38.424Z,5.20
2018-12-23T05:48:04.586Z,5.20
2018-12-23T05:50:30.748Z,5.20
2018-12-23T05:52:56.846Z,5.30
2018-12-23T05:55:23.148Z,5.20
2018-12-23T05:57:56.292Z,5.20
2018-12-23T06:00:22.562Z,5.20
2018-12-23T06:02:48.644Z,5.20
2018-12-23T06:05:14.770Z,5.30
2018-12-23T06:07:40.909Z,5.30
2018-12-23T06:10:07.168Z,5.20
2018-12-23T06:12:33.406Z,5.30
2018-12-23T06:14:59.578Z,5.30
2018-12-23T06:17:25.688Z,5.20
2018-12-23T06:19:51.798Z,5.20
2018-12-23T06:22:17.946Z,5.20
2018-12-23T06:24:44.125Z,5.20
2018-12-23T06:27:10.371Z,5.10
2018-12-23T06:29:36.477Z,5.20
2018-12-23T06:32:02.709Z,5.20
2018-12-23T06:34:28.925Z,5.20
2018-12-23T06:36:55.145Z,5.30
2018-12-23T06:39:21.311Z,5.20
2018-12-23T06:41:47.575Z,5.20
2018-12-23T06:44:13.693Z,5.20
2018-12-23T06:46:39.848Z,5.10
2018-12-23T06:49:05.981Z,5.10
2018-12-23T06:51:32.099Z,5.20
2018-12-23T06:53:58.229Z,5.20
2018-12-23T06:56:31.227Z,5.30
2018-12-23T06:58:57.445Z,5.30
2018-12-23T07:01:23.606Z,5.40
2018-12-23T07:03:56.678Z,5.30
2018-12-23T07:06:22.882Z,5.40
2018-12-23T07:08:49.091Z,5.40
2018-12-23T07:11:15.422Z,5.40
2018-12-23T07:13:41.592Z,5.40
2018-12-23T07:16:07.698Z,5.40
2018-12-23T07:18:33.846Z,5.50
2018-12-23T07:21:00.022Z,5.50
2018-12-23T07:23:26.134Z,5.40
2018-12-23T07:25:52.400Z,5.50
2018-12-23T07:28:18.525Z,5.50
2018-12-23T07:30:44.652Z,5.50
2018-12-23T07:33:10.928Z,5.50
2018-12-23T07:35:37.103Z,5.50
2018-12-23T07:38:05.069Z,5.50
2018-12-23T07:40:31.473Z,5.60
2018-12-23T07:42:57.582Z,5.50
2018-12-23T07:45:23.706Z,5.50
2018-12-23T07:47:49.815Z,5.50
2018-12-23T07:50:23.016Z,5.50
2018-12-23T07:52:49.131Z,5.60
2018-12-23T07:55:15.343Z,5.50
2018-12-23T07:57:48.522Z,5.60
2018-12-23T08:00:14.820Z,5.60
2018-12-23T08:02:41.091Z,5.60
2018-12-23T08:05:07.262Z,5.70
2018-12-23T08:07:36.253Z,5.70
2018-12-23T08:10:01.977Z,5.70
2018-12-23T08:12:28.145Z,5.80
2018-12-23T08:14:54.266Z,5.80
2018-12-23T08:17:20.410Z,5.80
2018-12-23T08:19:53.650Z,5.80
2018-12-23T08:22:19.815Z,5.90
2018-12-23T08:24:45.913Z,5.80
2018-12-23T08:27:12.023Z,5.80
2018-12-23T08:29:38.197Z,5.90
2018-12-23T08:32:04.366Z,5.90
2018-12-23T08:34:30.484Z,5.90
2018-12-23T08:36:56.669Z,5.90
2018-12-23T08:39:22.872Z,6.00
2018-12-23T08:41:49.027Z,6.00
2018-12-23T08:44:15.293Z,6.00
2018-12-23T08:46:41.425Z,6.10
2018-12-23T08:49:07.571Z,6.10
2018-12-23T08:51:33.939Z,6.20
2018-12-23T08:54:00.169Z,6.30
2018-12-23T08:56:26.394Z,6.40
2018-12-23T08:58:52.620Z,6.50
2018-12-23T09:01:18.851Z,6.70
2018-12-23T09:03:45.028Z,6.70
2018-12-23T09:06:11.195Z,6.80
2018-12-23T09:08:37.289Z,6.90
2018-12-23T09:11:03.475Z,7.00
2018-12-23T09:13:29.682Z,7.10
2018-12-23T09:15:55.821Z,7.20
2018-12-23T09:18:22.061Z,7.20
2018-12-23T09:20:48.181Z,7.20
2018-12-23T09:23:14.498Z,7.30
2018-12-23T09:25:40.688Z,7.40
2018-12-23T09:28:08.875Z,7.40
2018-12-23T09:30:34.977Z,7.50
2018-12-23T09:33:01.145Z,7.50
2018-12-23T09:35:27.302Z,7.60
2018-12-23T09:38:01.224Z,7.60
2018-12-23T09:40:21.713Z,7.60
2018-12-23T09:42:47.900Z,7.60
2018-12-23T09:45:14.096Z,7.70
2018-12-23T09:47:40.462Z,7.70
2018-12-23T09:50:06.829Z,7.70
2018-12-23T09:52:32.997Z,7.70
2018-12-23T09:54:59.147Z,7.70
2018-12-23T09:57:25.273Z,7.70
2018-12-23T09:59:51.435Z,7.70
2018-12-23T10:02:17.616Z,7.70
2018-12-23T10:04:43.768Z,7.70
2018-12-23T10:07:09.890Z,7.70
2018-12-23T10:09:36.144Z,7.80
2018-12-23T10:12:02.337Z,7.80
2018-12-23T10:14:28.491Z,7.80
2018-12-23T10:16:54.640Z,7.80
2018-12-23T10:19:20.814Z,7.80
2018-12-23T10:21:46.973Z,7.80
2018-12-23T10:24:20.124Z,7.90
2018-12-23T10:26:46.356Z,7.90
2018-12-23T10:29:12.468Z,7.90
2018-12-23T10:31:38.643Z,7.90
2018-12-23T10:34:34.119Z,8.00
2018-12-23T10:37:00.423Z,8.00
2018-12-23T10:39:26.636Z,8.10
2018-12-23T10:41:53.012Z,8.00
2018-12-23T10:44:19.317Z,8.10
2018-12-23T10:46:45.535Z,8.10
2018-12-23T10:49:11.775Z,8.10
2018-12-23T10:51:37.996Z,8.10
2018-12-23T10:54:04.257Z,8.20
2018-12-23T10:56:30.501Z,8.10
2018-12-23T10:58:56.727Z,8.10
2018-12-23T11:01:23.092Z,8.20
2018-12-23T11:03:49.590Z,8.30
2018-12-23T11:06:15.806Z,8.30
2018-12-23T11:08:42.046Z,8.30
2018-12-23T11:11:08.295Z,8.30
2018-12-23T11:13:34.589Z,8.30
2018-12-23T11:16:00.908Z,8.30
2018-12-23T11:18:27.174Z,8.40
2018-12-23T11:20:53.435Z,8.50
2018-12-23T11:23:19.651Z,8.50
2018-12-23T11:25:45.879Z,8.40
2018-12-23T11:28:12.133Z,8.40
2018-12-23T11:30:38.398Z,8.40
2018-12-23T11:33:04.734Z,8.40
2018-12-23T11:35:31.118Z,8.40
2018-12-23T11:37:57.417Z,8.40
2018-12-23T11:40:24.130Z,8.50
2018-12-23T11:42:50.337Z,8.50
2018-12-23T11:45:16.569Z,8.50
2018-12-23T11:47:42.897Z,8.40
2018-12-23T11:50:09.108Z,8.50
2018-12-23T11:52:35.380Z,8.50
2018-12-23T11:55:01.715Z,8.50
2018-12-23T11:57:28.081Z,8.50
2018-12-23T11:59:54.420Z,8.50
2018-12-23T12:02:20.737Z,8.50
2018-12-23T12:04:46.960Z,8.50
2018-12-23T12:07:13.194Z,8.50
2018-12-23T12:09:39.577Z,8.60
2018-12-23T12:12:05.874Z,8.50
2018-12-23T12:14:32.076Z,8.60
2018-12-23T12:16:58.300Z,8.60
2018-12-23T12:19:24.514Z,8.50
2018-12-23T12:21:50.769Z,8.60
2018-12-23T12:24:17.040Z,8.50
2018-12-23T12:26:43.374Z,8.60
2018-12-23T12:29:10.954Z,8.60
2018-12-23T12:31:37.381Z,8.60
2018-12-23T12:34:03.849Z,8.60
2018-12-23T12:36:30.171Z,8.60
2018-12-23T12:38:56.397Z,8.60
2018-12-23T12:41:22.619Z,8.70
2018-12-23T12:43:48.831Z,8.60
2018-12-23T12:46:15.049Z,8.60
2018-12-23T12:48:41.367Z,8.70
2018-12-23T12:51:07.620Z,8.80
2018-12-23T12:53:33.848Z,8.70
2018-12-23T12:56:00.266Z,8.70
2018-12-23T12:58:26.494Z,8.80
2018-12-23T13:00:52.725Z,8.70
2018-12-23T13:03:18.984Z,8.80
2018-12-23T13:05:45.229Z,8.80
2018-12-23T13:08:11.592Z,8.80
2018-12-23T13:10:37.886Z,8.70
2018-12-23T13:13:04.100Z,8.80
2018-12-23T13:15:30.358Z,8.80
2018-12-23T13:17:56.610Z,8.70
2018-12-23T13:20:22.898Z,8.70
2018-12-23T13:22:49.476Z,8.80
2018-12-23T13:25:15.701Z,8.70
2018-12-23T13:27:41.969Z,8.70
2018-12-23T13:30:08.184Z,8.60
2018-12-23T13:32:34.395Z,8.50
2018-12-23T13:35:00.675Z,8.50
2018-12-23T13:37:26.975Z,8.40
2018-12-23T13:39:53.763Z,8.30
2018-12-23T13:42:32.999Z,8.30
2018-12-23T13:45:03.042Z,8.30
2018-12-23T13:47:49.751Z,8.30
2018-12-23T13:50:48.836Z,8.30
2018-12-23T13:53:25.106Z,8.30
2018-12-23T13:56:01.405Z,8.40
2018-12-23T13:58:43.625Z,8.40
2018-12-23T14:01:22.831Z,8.30
2018-12-23T14:03:52.893Z,8.30
2018-12-23T14:06:40.879Z,8.30
2018-12-23T14:09:17.256Z,8.30
2018-12-23T14:11:55.411Z,8.30
2018-12-23T14:14:21.636Z,8.30
2018-12-23T14:16:47.937Z,8.20
2018-12-23T14:19:14.223Z,8.20
2018-12-23T14:21:40.458Z,8.10
2018-12-23T14:24:06.703Z,8.10
2018-12-23T14:26:33.067Z,8.00
2018-12-23T14:28:59.391Z,8.00
2018-12-23T14:31:25.574Z,8.00
2018-12-23T14:33:51.823Z,8.00
2018-12-23T14:36:18.102Z,8.00
2018-12-23T14:38:44.358Z,8.00
2018-12-23T14:41:10.633Z,8.00
2018-12-23T14:43:36.900Z,8.00
2018-12-23T14:46:03.158Z,8.00
2018-12-23T14:48:29.586Z,7.80
2018-12-23T14:50:55.837Z,7.80
2018-12-23T14:53:22.180Z,7.90
2018-12-23T14:55:48.517Z,7.80
2018-12-23T14:58:14.865Z,7.80
2018-12-23T15:00:41.169Z,7.80
2018-12-23T15:03:07.436Z,7.70
2018-12-23T15:05:33.788Z,7.80
2018-12-23T15:08:00.147Z,7.80
2018-12-23T15:10:26.445Z,7.80
2018-12-23T15:12:52.749Z,7.70
2018-12-23T15:15:18.959Z,7.70
2018-12-23T15:17:45.206Z,7.70
2018-12-23T15:20:11.465Z,7.70
2018-12-23T15:22:37.721Z,7.70
2018-12-23T15:25:03.982Z,7.70
2018-12-23T15:27:30.170Z,7.70
2018-12-23T15:29:56.441Z,7.70
2018-12-23T15:32:22.779Z,7.70
2018-12-23T15:34:49.065Z,7.70
2018-12-23T15:37:15.333Z,7.60
2018-12-23T15:39:42.681Z,7.70
2018-12-23T15:42:09.337Z,7.70
2018-12-23T15:44:35.591Z,7.60
2018-12-23T15:47:01.878Z,7.60
2018-12-23T15:49:28.132Z,7.40
2018-12-23T15:51:54.477Z,7.40
2018-12-23T15:54:20.793Z,7.40
2018-12-23T15:56:47.058Z,7.40
2018-12-23T15:59:13.370Z,7.40
2018-12-23T16:01:39.569Z,7.40
2018-12-23T16:04:05.818Z,7.40
2018-12-23T16:06:32.033Z,7.40
2018-12-23T16:08:58.281Z,7.30
2018-12-23T16:11:24.516Z,7.40
2018-12-23T16:13:50.729Z,7.50
2018-12-23T16:16:16.956Z,7.40
2018-12-23T16:18:43.190Z,7.50
2018-12-23T16:21:09.384Z,7.50
2018-12-23T16:23:35.676Z,7.50
2018-12-23T16:26:01.958Z,7.50
2018-12-23T16:28:28.234Z,7.50
2018-12-23T16:30:54.562Z,7.50
2018-12-23T16:33:20.847Z,7.50
2018-12-23T16:35:47.170Z,7.50
2018-12-23T16:38:13.383Z,7.50
2018-12-23T16:40:39.600Z,7.40
2018-12-23T16:43:05.850Z,7.40
2018-12-23T16:45:32.038Z,7.50
2018-12-23T16:47:58.294Z,7.50
2018-12-23T16:50:24.769Z,7.50
2018-12-23T16:52:51.076Z,7.50
2018-12-23T16:55:17.359Z,7.40
2018-12-23T16:57:43.670Z,7.40
2018-12-23T17:00:11.806Z,7.40
2018-12-23T17:02:38.055Z,7.40
2018-12-23T17:05:05.015Z,7.40
2018-12-23T17:07:31.295Z,7.50
2018-12-23T17:09:57.589Z,7.40
2018-12-23T17:12:23.893Z,7.30
2018-12-23T17:14:50.202Z,7.30
2018-12-23T17:17:16.446Z,7.30
2018-12-23T17:19:42.660Z,7.30
2018-12-23T17:22:08.862Z,7.30
2018-12-23T17:24:35.131Z,7.40
2018-12-23T17:27:01.472Z,7.30
2018-12-23T17:29:27.825Z,7.30
2018-12-23T17:31:54.139Z,7.30
2018-12-23T17:34:20.497Z,7.30
2018-12-23T17:36:46.827Z,7.30
2018-12-23T17:39:13.052Z,7.20
2018-12-23T17:41:39.271Z,7.20
2018-12-23T17:44:05.542Z,7.30
2018-12-23T17:46:31.819Z,7.30
2018-12-23T17:48:58.176Z,7.20
2018-12-23T17:51:24.522Z,7.20
2018-12-23T17:53:50.747Z,7.10
2018-12-23T17:56:16.939Z,7.20
2018-12-23T17:58:43.204Z,7.20
2018-12-23T18:01:09.604Z,7.10
2018-12-23T18:03:35.868Z,7.20
2018-12-23T18:06:02.173Z,7.10
2018-12-23T18:08:28.383Z,7.20
2018-12-23T18:10:54.634Z,7.20
2018-12-23T18:13:20.987Z,7.10
2018-12-23T18:15:47.331Z,7.10
2018-12-23T18:18:13.561Z,7.20
2018-12-23T18:20:39.838Z,7.20
2018-12-23T18:23:06.084Z,7.20
2018-12-23T18:25:32.411Z,7.20
2018-12-23T18:27:58.613Z,7.20
2018-12-23T18:30:24.880Z,7.20
2018-12-23T18:32:51.172Z,7.20
2018-12-23T18:35:17.557Z,7.20
2018-12-23T18:37:43.800Z,7.20
2018-12-23T18:40:10.131Z,7.20
2018-12-23T18:42:36.403Z,7.30
2018-12-23T18:45:03.523Z,7.30
2018-12-23T18:47:29.759Z,7.30
2018-12-23T18:49:56.005Z,7.30
2018-12-23T18:52:22.201Z,7.20
2018-12-23T18:54:48.465Z,7.20
2018-12-23T18:57:15.029Z,7.20
2018-12-23T18:59:41.345Z,7.10
2018-12-23T19:02:07.710Z,7.10
2018-12-23T19:04:34.131Z,7.20
2018-12-23T19:07:00.376Z,7.10
2018-12-23T19:09:28.315Z,7.20
2018-12-23T19:12:16.703Z,7.20
2018-12-23T19:15:05.964Z,7.10
2018-12-23T19:18:00.535Z,7.10
2018-12-23T19:20:48.808Z,7.10
2018-12-23T19:23:18.823Z,7.10
2018-12-23T19:26:07.006Z,7.10
2018-12-23T19:28:40.023Z,7.10
2018-12-23T19:31:37.313Z,7.10
2018-12-23T19:34:10.101Z,7.10
2018-12-23T19:36:43.265Z,7.20
2018-12-23T19:39:22.618Z,7.20
2018-12-23T19:41:58.267Z,7.20
2018-12-23T19:44:43.253Z,7.20
2018-12-23T19:47:16.047Z,7.10
2018-12-23T19:49:52.141Z,7.00
2018-12-23T19:52:45.118Z,7.00
2018-12-23T19:55:15.179Z,7.00
2018-12-23T19:57:51.276Z,7.10
2018-12-23T20:00:36.614Z,7.10
2018-12-23T20:03:06.681Z,7.20
2018-12-23T20:05:45.405Z,7.20
2018-12-23T20:08:17.946Z,7.10
2018-12-23T20:10:59.018Z,7.10
2018-12-23T20:13:28.700Z,7.10
2018-12-23T20:16:16.754Z,7.20
2018-12-23T20:19:20.956Z,7.20
2018-12-23T20:22:13.588Z,7.20
2018-12-23T20:25:14.330Z,7.30
2018-12-23T20:27:53.370Z,7.20
2018-12-23T20:30:41.659Z,7.30
2018-12-23T20:33:26.826Z,7.20
2018-12-23T20:36:13.759Z,7.20
2018-12-23T20:38:46.656Z,7.20
2018-12-23T20:41:47.175Z,7.30
2018-12-23T20:44:17.206Z,7.30
2018-12-23T20:47:02.378Z,7.30
2018-12-23T20:49:41.275Z,7.40
2018-12-23T20:52:41.712Z,7.30
2018-12-23T20:55:34.627Z,7.40
2018-12-23T20:58:13.766Z,7.40
2018-12-23T21:00:56.147Z,7.40
2018-12-23T21:03:53.378Z,7.40
2018-12-23T21:06:35.125Z,7.50
2018-12-23T21:09:13.630Z,7.60
2018-12-23T21:12:01.289Z,7.60
2018-12-23T21:14:48.327Z,7.60
2018-12-23T21:17:51.961Z,7.60
2018-12-23T21:20:42.050Z,7.50
2018-12-23T21:23:31.723Z,7.60
2018-12-23T21:26:21.729Z,7.60
2018-12-23T21:28:51.787Z,7.60
2018-12-23T21:31:27.856Z,7.60
2018-12-23T21:34:12.944Z,7.60
2018-12-23T21:37:03.723Z,7.60
2018-12-23T21:39:39.668Z,7.60
2018-12-23T21:42:12.454Z,7.70
2018-12-23T21:45:18.038Z,7.70
2018-12-23T21:47:54.117Z,7.80
2018-12-23T21:50:30.223Z,8.40
2018-12-23T21:53:19.718Z,8.70
2018-12-23T21:56:01.788Z,9.00
2018-12-23T21:58:43.999Z,9.00
2018-12-23T22:01:22.772Z,9.20
2018-12-23T22:04:25.015Z,9.40
2018-12-23T22:07:24.153Z,9.50
2018-12-23T22:09:56.952Z,9.50
2018-12-23T22:12:29.483Z,9.60
2018-12-23T22:14:55.740Z,9.70
2018-12-23T22:17:21.955Z,9.90
2018-12-23T22:19:48.234Z,9.90
2018-12-23T22:22:14.537Z,9.90
2018-12-23T22:24:40.851Z,10.00
2018-12-23T22:27:07.100Z,10.00
2018-12-23T22:29:33.350Z,10.10
2018-12-23T22:31:59.542Z,10.20
2018-12-23T22:34:25.822Z,10.20
2018-12-23T22:36:52.170Z,10.20
2018-12-23T22:39:18.399Z,10.20
2018-12-23T22:41:44.614Z,10.30
2018-12-23T22:44:10.881Z,10.30
2018-12-23T22:46:37.219Z,10.20
2018-12-23T22:49:03.528Z,10.30
2018-12-23T22:51:29.776Z,10.40
2018-12-23T22:53:56.012Z,10.40
2018-12-23T22:56:22.256Z,10.40
2018-12-23T22:58:48.532Z,10.40
2018-12-23T23:01:14.891Z,10.40
2018-12-23T23:03:41.169Z,10.50
2018-12-23T23:06:07.446Z,10.50
2018-12-23T23:08:33.651Z,10.40
2018-12-23T23:11:00.003Z,10.40
2018-12-23T23:13:26.250Z,10.40
2018-12-23T23:15:52.535Z,10.50
2018-12-23T23:18:18.771Z,10.50
2018-12-23T23:20:45.021Z,10.50
2018-12-23T23:23:11.226Z,10.50
2018-12-23T23:25:37.448Z,10.50
2018-12-23T23:28:03.655Z,10.50
2018-12-23T23:30:30.012Z,10.60
2018-12-23T23:32:56.318Z,10.70
2018-12-23T23:35:22.565Z,10.70
2018-12-23T23:37:48.805Z,10.60
2018-12-23T23:40:15.037Z,10.70
2018-12-23T23:42:41.293Z,10.60
2018-12-23T23:45:07.557Z,10.60
2018-12-23T23:47:33.805Z,10.50
2018-12-23T23:50:00.172Z,10.50
2018-12-23T23:52:26.476Z,10.40
2018-12-23T23:54:52.696Z,10.20
2018-12-23T23:57:18.896Z,10.00
2018-12-23T23:59:45.108Z,9.80
